Flight Track Log - Related Links

Times and Time Zones

All times are in EDT time to prevent confusion due to time zone crossing. See the KAP66 flight status page for this flight to view local times or setup timezone preferences in your user account.

Time Position Orientation Groundspeed Altitude Reporting Facility
EDT Latitude Longitude Course Direction KTS MPH feet Rate Location/Type
Tue 04:23:28 PM 42.3500 -70.9333 114° Southeast 108 124 1,200  Level KA90
Tue 04:24:28 PM 42.3333 -70.9000 124° Southeast 113 130 1,700 470 Climbing KA90
Tue 04:25:23 PM 42.3000 -70.8667 144° Southeast 119 137 2,100 470 Climbing KA90
Tue 04:26:23 PM 42.2833 -70.8500 144° Southeast 122 140 2,600 484 Climbing KA90
Tue 04:27:27 PM 42.2500 -70.8167 143° Southeast 122 140 3,100 482 Climbing KA90
Tue 04:28:15 PM 42.2167 -70.8000 160° South 122 140 3,500 421 Climbing KA90
Tue 04:29:21 PM 42.1833 -70.7833 160° South 125 144 3,900 381 Climbing KA90
Tue 04:30:21 PM 42.1667 -70.7500 124° Southeast 125 144 4,300 400 Climbing KA90
Tue 04:32:00 PM 42.1589 -70.6637 97° East  Level FlightAware Approximate
Tue 04:39:00 PM 41.9146 -70.4991 114° Southeast  Level Estimated
Tue 04:40:00 PM 41.9257 -70.4488 73° East  Level FlightAware Approximate
Tue 04:41:00 PM 41.9368 -70.3985 73° East  Level FlightAware Approximate
Tue 04:42:00 PM 41.9479 -70.3482 73° East  Level FlightAware Approximate
Tue 04:43:00 PM 41.9590 -70.2978 74° East  Level FlightAware Approximate
Tue 04:44:00 PM 41.9700 -70.2475 74° East  Level FlightAware Approximate
Tue 04:45:00 PM 41.9317 -70.2374 180° South  Level Estimated
Tue 04:46:00 PM 41.8962 -70.2154 155° Southeast  Level FlightAware Approximate
Tue 04:47:00 PM 41.8608 -70.1935 155° Southeast  Level FlightAware Approximate
Tue 04:48:00 PM 41.8253 -70.1717 155° Southeast  Level FlightAware Approximate
Tue 04:49:00 PM 41.7898 -70.1498 155° Southeast  Level FlightAware Approximate
Tue 04:50:00 PM 41.7543 -70.1280 155° Southeast  Level FlightAware Approximate
Tue 04:51:00 PM 41.7189 -70.1062 155° Southeast  Level FlightAware Approximate
Tue 04:52:00 PM 41.6834 -70.0844 155° Southeast  Level FlightAware Approximate
Tue 04:53:00 PM 41.6479 -70.0626 155° Southeast  Level FlightAware Approximate
Tue 04:54:00 PM 41.6124 -70.0409 155° Southeast  Level FlightAware Approximate
Tue 04:55:00 PM 41.5981 -70.0337 189° South  Level FlightAware Approximate
Tue 04:56:00 PM 41.5595 -70.0414 189° South  Level FlightAware Approximate
Tue 04:57:00 PM 41.5209 -70.0492 189° South  Level FlightAware Approximate
Tue 04:58:00 PM 41.4819 -70.0500 180° South  Level FlightAware Approximate
Tue 04:59:00 PM 41.4428 -70.0500 180° South  Level FlightAware Approximate
Tue 05:00:00 PM 41.4038 -70.0500 180° South  Level FlightAware Approximate
Tue 05:01:00 PM 41.3648 -70.0500 180° South  Level FlightAware Approximate
Tue 05:02:00 PM 41.3257 -70.0500 180° South  Level FlightAware Approximate

Login

Don't have an account? Register now (free) for customized features, flight alerts, and more!